Observations for NEWCASTLE, United Kingdom (EGNT)

EGNT 201650Z 09004KT 050V180 9999 FEW016 SCT030 13/10 Q1017 
EGNT 201620Z 08007KT 9999 FEW016 SCT028 13/09 Q1017 
EGNT 201550Z 33004KT 270V010 9999 FEW018 SCT035 16/10 Q1017 
EGNT 201520Z 33008KT 290V360 9999 FEW020 SCT040 15/10 Q1017 
EGNT 201450Z 32006KT 280V350 9999 FEW020 SCT040 16/11 Q1016 
EGNT 201420Z 33007KT 9999 FEW020 SCT035 15/10 Q1016 
EGNT 201350Z 32006KT 9999 FEW012 SCT035 14/10 Q1016 
EGNT 201320Z 33007KT 9999 FEW012 BKN030 14/10 Q1016 
EGNT 201250Z 01006KT 320V050 9999 SCT010 BKN030 13/10 Q1015 
EGNT 201220Z 02007KT 350V050 9999 VCSH SCT012 BKN030 13/11 Q1015
EGNT 201150Z 34009KT 9999 -SHRA SCT012 BKN028 13/11 Q1014   
EGNT 201120Z 01011KT 9999 -SHRA SCT009 BKN030 12/11 Q1014   
EGNT 201050Z 27013KT 9999 VCSH SCT026 BKN040 18/13 Q1013
EGNT 201020Z 27015KT 9999 VCSH SCT020 BKN040 18/13 Q1012
EGNT 200950Z 27020KT 9999 -SHRA BKN018 BKN030 18/13 Q1012   
EGNT 200920Z 26018KT 9999 BKN018 BKN030 18/14 Q1011 
EGNT 200850Z 26019KT 9999 SCT017 BKN023 18/14 Q1011 
EGNT 200820Z 25018KT 9999 BKN019 17/13 Q1011
EGNT 200750Z 26017KT 9999 VCSH SCT021 BKN042 17/14 Q1011
EGNT 200720Z 25014G28KT 9999 VCSH SCT009 BKN023 17/14 Q1011 
EGNT 200650Z 23006KT 190V260 9999 4000NW -RA FEW018 BKN021 17/14 Q1010  
EGNT 200620Z 22006KT 9999 FEW020 BKN023 17/15 Q1010 
EGNT 200550Z 22007KT 200V260 9999 -RA FEW016 BKN021 17/15 Q1010 
EGNT 200520Z 22007KT 9999 -RA FEW016 BKN021 16/14 Q1010 
EGNT 200450Z 23011G21KT 9999 -RA FEW014 SCT028 16/14 Q1010  
EGNT 200420Z 23014KT 8000 -RA FEW018 SCT030 17/14 Q1010 
EGNT 200350Z 23017G29KT 8000 -RA SCT018 17/14 Q1010 
EGNT 200320Z 23013KT 200V260 9999 FEW020 17/14 Q1010
EGNT 200250Z 23010KT 9999 FEW020 16/14 Q1011
EGNT 200220Z 24009KT 210V270 9999 FEW020 16/14 Q1011
EGNT 200150Z 24012KT 180V260 9999 FEW015 17/14 Q1012
EGNT 200120Z 22015KT 200V260 9999 FEW015 17/14 Q1011
EGNT 200050Z 22015KT 9999 FEW019 17/14 Q1012
EGNT 200020Z 23017KT 9999 FEW019 17/14 Q1012
EGNT 192350Z 22016G28KT 190V260 9999 FEW019 17/14 Q1012 
EGNT 192320Z 23012KT 200V260 9999 BKN019 16/14 Q1012
EGNT 192250Z 22007KT 180V260 9999 BKN019 16/14 Q1013
EGNT 192220Z VRB02KT 9999 BKN019 14/13 Q1014
EGNT 192150Z VRB03KT 9000 FEW003 BKN019 12/12 Q1014 
EGNT 192120Z VRB02KT 6000 -RADZ SCT003 BKN020 12/12 Q1015   
EGNT 192050Z VRB03KT 2500 RADZ FEW004 BKN015 13/12 Q1015
EGNT 192020Z 09003KT 7000 -SHRA FEW004 BKN015 13/13 Q1015   
EGNT 191950Z VRB02KT 2500 -SHRA FEW004 BKN018 13/13 Q1015   
EGNT 191920Z VRB02KT 2500 -SHRA FEW004 BKN018 13/12 Q1016   
EGNT 191850Z VRB01KT 3500 -SHRA SCT010 BKN020 13/12 Q1016   
EGNT 191820Z 20004KT 160V230 5000 -SHRA BKN021 14/11 Q1017  
EGNT 191750Z 21005KT 180V240 7000 -SHRA BKN030 14/11 Q1017  
EGNT 191720Z 20004KT 150V250 9999 BKN032 16/08 Q1017
EGNT 191650Z 22006KT 170V250 9999 BKN035 16/08 Q1017
EGNT 191620Z 23004KT 190V270 9999 BKN040 17/07 Q1018